Time;durP1;ratioP1;P1;durP2;ratioP2;P2;SDS_P1;SDS_P2;PMS_P1;PMS_P2;Temp;Humidity;BMP_temperature;BMP_pressure;BME280_temperature;BME280_humidity;BME280_pressure;Samples;Min_cycle;Max_cycle;Signal;HPM_P1;HPM_P2
2022/11/08 00:02:26;;;;;;;3.57;2.00;;;12.40;99.90;;;;;;5150316;27;20241;-72
2022/11/08 00:04:54;;;;;;;4.37;1.83;;;12.40;99.90;;;;;;5150318;27;20394;-72
2022/11/08 00:15:37;;;;;;;2.53;1.70;;;12.40;99.90;;;;;;5107145;28;20713;-71
2022/11/08 00:18:04;;;;;;;4.10;2.00;;;12.30;99.90;;;;;;5116444;27;20668;-71
2022/11/08 00:20:32;;;;;;;3.80;1.80;;;12.30;99.90;;;;;;5129161;27;20201;-71
2022/11/08 00:22:59;;;;;;;6.73;1.87;;;12.30;99.90;;;;;;5110826;27;20213;-71
2022/11/08 00:25:26;;;;;;;3.67;2.10;;;12.30;99.90;;;;;;5128833;27;20205;-71
2022/11/08 00:27:52;;;;;;;3.27;1.80;;;12.30;99.90;;;;;;5109815;27;20232;-72
2022/11/08 00:30:19;;;;;;;2.70;1.50;;;12.30;99.90;;;;;;5107978;28;20233;-71
2022/11/08 00:32:46;;;;;;;3.33;1.80;;;12.30;99.90;;;;;;5118586;27;20222;-72
2022/11/08 00:35:14;;;;;;;4.20;2.20;;;12.20;99.90;;;;;;5129032;27;20660;-71
2022/11/08 00:37:42;;;;;;;6.87;1.80;;;12.20;99.90;;;;;;5128933;27;20197;-71
2022/11/08 00:40:10;;;;;;;3.93;2.07;;;12.20;99.90;;;;;;5119557;27;20206;-71
2022/11/08 00:42:36;;;;;;;2.77;1.80;;;12.20;99.90;;;;;;5108218;28;20234;-71
2022/11/08 00:45:04;;;;;;;3.63;1.90;;;12.20;99.90;;;;;;5107886;28;20217;-71
2022/11/08 00:47:31;;;;;;;2.20;1.60;;;12.20;99.90;;;;;;5108854;27;20194;-70
2022/11/08 00:49:57;;;;;;;3.03;2.17;;;12.20;99.90;;;;;;5107698;28;20699;-70
2022/11/08 00:52:24;;;;;;;3.03;1.90;;;12.20;99.90;;;;;;5121814;27;20216;-70
2022/11/08 00:54:52;;;;;;;3.63;2.13;;;12.20;99.90;;;;;;5128087;27;20201;-72
2022/11/08 00:57:19;;;;;;;3.30;1.70;;;12.20;99.90;;;;;;5142711;27;20211;-71
2022/11/08 00:59:45;;;;;;;3.67;1.83;;;12.20;99.90;;;;;;5148771;27;20717;-71
2022/11/08 01:02:12;;;;;;;5.00;1.97;;;12.20;99.90;;;;;;5149219;27;20208;-70
2022/11/08 01:04:39;;;;;;;6.10;2.67;;;12.20;99.90;;;;;;5149270;27;20208;-71
2022/11/08 01:07:06;;;;;;;2.23;1.70;;;12.10;99.90;;;;;;5129415;27;20565;-70
2022/11/08 01:09:32;;;;;;;4.70;2.07;;;12.20;99.90;;;;;;5117876;27;20222;-71
2022/11/08 01:12:00;;;;;;;3.97;2.23;;;12.10;99.90;;;;;;5108085;28;20201;-71
2022/11/08 01:14:27;;;;;;;3.93;1.80;;;12.10;99.90;;;;;;5116809;28;20260;-70
2022/11/08 01:16:54;;;;;;;3.37;1.60;;;12.10;99.90;;;;;;5108966;27;20202;-73
2022/11/08 01:19:21;;;;;;;3.37;2.00;;;12.10;99.90;;;;;;5108026;28;20213;-72
2022/11/08 01:21:47;;;;;;;2.67;1.80;;;12.10;99.90;;;;;;5107769;28;20202;-73
2022/11/08 01:24:14;;;;;;;4.57;1.87;;;12.00;99.90;;;;;;5107264;28;20684;-73
2022/11/08 01:26:41;;;;;;;2.40;1.70;;;12.00;99.90;;;;;;5107451;28;20206;-72
2022/11/08 01:29:09;;;;;;;4.00;2.07;;;12.00;99.90;;;;;;5108064;27;20216;-72
2022/11/08 01:31:36;;;;;;;3.83;1.80;;;12.00;99.90;;;;;;5107565;27;20202;-72
2022/11/08 01:34:02;;;;;;;3.00;1.73;;;12.00;99.90;;;;;;5119343;27;20252;-70
2022/11/08 01:36:30;;;;;;;2.97;1.70;;;12.00;99.90;;;;;;5117161;27;20202;-71
2022/11/08 01:38:57;;;;;;;3.57;2.10;;;12.00;99.90;;;;;;5127733;27;20215;-71
2022/11/08 01:41:26;;;;;;;3.60;2.10;;;11.90;99.90;;;;;;5127721;27;20232;-70
2022/11/08 01:43:53;;;;;;;3.63;2.40;;;11.90;99.90;;;;;;5124011;27;20194;-71
2022/11/08 01:46:36;;;;;;;5.80;2.17;;;11.90;99.90;;;;;;5107685;28;20202;-70
2022/11/08 01:49:18;;;;;;;3.97;2.00;;;11.90;99.90;;;;;;5124356;28;20202;-71
2022/11/08 01:51:49;;;;;;;3.47;1.53;;;11.90;99.90;;;;;;5128061;27;20225;-71
2022/11/08 01:54:21;;;;;;;5.47;2.47;;;11.90;99.90;;;;;;5127767;27;20819;-71
2022/11/08 01:56:48;;;;;;;4.40;2.23;;;11.90;99.90;;;;;;5137477;27;20208;-71
2022/11/08 01:59:16;;;;;;;3.57;2.03;;;11.90;99.90;;;;;;5149337;27;20235;-71
2022/11/08 02:01:45;;;;;;;3.73;2.20;;;11.90;99.90;;;;;;5147364;27;20193;-71
2022/11/08 02:04:13;;;;;;;3.13;1.77;;;11.90;99.90;;;;;;5131882;27;20549;-71
2022/11/08 02:06:42;;;;;;;3.60;1.97;;;11.80;99.90;;;;;;5131907;27;20202;-71
2022/11/08 02:09:12;;;;;;;3.20;2.03;;;11.90;99.90;;;;;;5131261;27;20675;-71
2022/11/08 02:11:40;;;;;;;3.00;2.00;;;11.90;99.90;;;;;;5131375;27;20666;-71
2022/11/08 02:14:07;;;;;;;3.70;1.93;;;11.90;99.90;;;;;;5125689;27;20213;-71
2022/11/08 02:16:33;;;;;;;4.93;2.37;;;11.90;99.90;;;;;;5122504;27;20727;-71
2022/11/08 02:19:02;;;;;;;5.00;2.13;;;11.80;99.90;;;;;;5123829;27;20724;-70
2022/11/08 02:21:36;;;;;;;5.50;1.90;;;11.90;99.90;;;;;;5110621;28;20687;-71
2022/11/08 02:24:08;;;;;;;2.03;1.63;;;11.90;99.90;;;;;;5110278;28;20201;-71
2022/11/08 02:26:36;;;;;;;4.47;1.87;;;11.80;99.90;;;;;;5126588;27;20211;-71
2022/11/08 02:29:25;;;;;;;4.07;2.00;;;11.80;99.90;;;;;;5141179;27;20197;-71
2022/11/08 02:31:52;;;;;;;4.57;1.80;;;11.80;99.90;;;;;;5131075;27;20204;-71
2022/11/08 02:34:20;;;;;;;6.87;2.43;;;11.80;99.90;;;;;;5131015;27;20953;-72
2022/11/08 02:36:48;;;;;;;2.93;1.70;;;11.80;99.90;;;;;;5125505;27;20206;-72
2022/11/08 02:39:16;;;;;;;3.77;1.90;;;11.80;99.90;;;;;;5110267;27;20206;-72
2022/11/08 02:41:43;;;;;;;3.57;2.10;;;11.80;99.90;;;;;;5123329;27;20229;-72
2022/11/08 02:44:09;;;;;;;4.00;1.90;;;11.80;99.90;;;;;;5130595;27;20675;-72
2022/11/08 02:46:36;;;;;;;3.50;1.93;;;11.80;99.90;;;;;;5131133;27;20209;-72
2022/11/08 02:49:03;;;;;;;3.90;1.73;;;11.70;99.90;;;;;;5130850;27;20216;-71
2022/11/08 02:51:30;;;;;;;2.53;1.87;;;11.80;99.90;;;;;;5130721;27;20225;-71
2022/11/08 02:53:56;;;;;;;6.00;2.10;;;11.80;99.90;;;;;;5130369;27;20212;-71
2022/11/08 02:56:24;;;;;;;4.37;2.10;;;11.70;99.90;;;;;;5131082;27;20507;-72
2022/11/08 02:58:51;;;;;;;5.73;2.40;;;11.80;99.90;;;;;;5130525;27;20202;-72
2022/11/08 03:01:18;;;;;;;2.10;1.70;;;11.70;99.90;;;;;;5130684;27;20197;-72
2022/11/08 03:03:45;;;;;;;3.37;2.07;;;11.80;99.90;;;;;;5130665;27;20205;-72
2022/11/08 03:06:11;;;;;;;2.30;2.10;;;11.80;99.90;;;;;;5125185;27;20579;-73
2022/11/08 03:08:38;;;;;;;3.63;2.40;;;11.80;99.90;;;;;;5109845;28;20533;-72
2022/11/08 03:11:06;;;;;;;3.53;1.93;;;11.80;99.90;;;;;;5109124;28;20230;-71
2022/11/08 03:13:34;;;;;;;2.67;1.67;;;11.80;99.90;;;;;;5109923;27;20198;-71
2022/11/08 03:16:02;;;;;;;5.27;2.90;;;11.80;99.90;;;;;;5116817;27;20248;-71
2022/11/08 03:18:29;;;;;;;3.40;1.93;;;11.80;99.90;;;;;;5130350;27;20237;-70
2022/11/08 03:20:56;;;;;;;4.67;2.10;;;11.80;99.90;;;;;;5125207;27;20226;-71
2022/11/08 03:23:23;;;;;;;3.37;1.70;;;11.80;99.90;;;;;;5109674;28;20288;-70
2022/11/08 03:25:49;;;;;;;3.57;1.93;;;11.80;99.90;;;;;;5138631;27;20560;-70
2022/11/08 03:28:16;;;;;;;2.63;1.70;;;11.80;99.90;;;;;;5147351;27;20201;-71
2022/11/08 03:30:44;;;;;;;5.43;2.03;;;11.80;99.90;;;;;;5130167;27;20233;-70
2022/11/08 03:33:11;;;;;;;3.53;1.73;;;11.80;99.90;;;;;;5129874;27;20213;-71
2022/11/08 03:35:38;;;;;;;6.33;2.37;;;11.80;99.90;;;;;;5130181;27;20213;-71
2022/11/08 03:38:05;;;;;;;5.30;2.10;;;11.80;99.90;;;;;;5129625;27;20668;-70
2022/11/08 03:40:31;;;;;;;2.20;1.80;;;11.80;99.90;;;;;;5129996;27;20205;-71
2022/11/08 03:42:58;;;;;;;3.23;1.60;;;11.80;99.90;;;;;;5129923;27;20266;-71
2022/11/08 03:45:25;;;;;;;3.87;2.03;;;11.80;99.90;;;;;;5129998;27;20213;-71
2022/11/08 03:47:53;;;;;;;3.80;2.10;;;11.80;99.90;;;;;;5129966;27;20573;-72
2022/11/08 03:50:20;;;;;;;5.33;2.00;;;11.80;99.90;;;;;;5129853;27;20314;-72
2022/11/08 03:52:49;;;;;;;3.03;2.00;;;11.80;99.90;;;;;;5129485;27;20703;-71
2022/11/08 03:55:18;;;;;;;7.63;1.90;;;11.80;99.90;;;;;;5129448;27;20201;-71
2022/11/08 03:57:46;;;;;;;2.77;2.10;;;11.70;99.90;;;;;;5112009;27;20217;-71
2022/11/08 04:00:15;;;;;;;3.47;1.70;;;11.70;99.90;;;;;;5108829;28;20238;-71
2022/11/08 04:02:42;;;;;;;5.80;2.17;;;11.70;99.90;;;;;;5114807;27;20660;-71
2022/11/08 04:05:12;;;;;;;5.90;2.07;;;11.70;99.90;;;;;;5129664;27;20197;-71
2022/11/08 04:07:39;;;;;;;3.20;1.83;;;11.70;99.90;;;;;;5129693;27;20243;-71
2022/11/08 04:10:08;;;;;;;3.00;2.10;;;11.70;99.90;;;;;;5129149;27;20205;-71
2022/11/08 04:15:23;;;;;;;2.93;2.53;;;11.70;99.90;;;;;;5129006;27;20651;-71
2022/11/08 04:23:20;;;;;;;6.20;1.93;;;11.60;99.90;;;;;;5128004;27;20553;-73
2022/11/08 04:25:53;;;;;;;2.60;1.70;;;11.60;99.90;;;;;;5129501;27;20217;-73
2022/11/08 04:28:22;;;;;;;3.13;1.90;;;11.60;99.90;;;;;;5114230;27;20196;-73
2022/11/08 04:30:55;;;;;;;2.77;1.90;;;11.60;99.90;;;;;;5128932;27;20225;-73
2022/11/08 04:33:22;;;;;;;4.90;2.07;;;11.60;99.90;;;;;;5113234;27;20213;-73
2022/11/08 04:35:50;;;;;;;3.17;2.03;;;11.60;99.90;;;;;;5108483;28;20202;-72
2022/11/08 04:38:18;;;;;;;2.30;1.80;;;11.50;99.90;;;;;;5108227;28;20210;-69
2022/11/08 04:40:45;;;;;;;3.40;1.67;;;11.50;99.90;;;;;;5107571;28;20947;-69
2022/11/08 04:43:12;;;;;;;3.97;2.33;;;11.50;99.90;;;;;;5108637;28;20206;-70
2022/11/08 04:45:40;;;;;;;2.40;1.77;;;11.50;99.90;;;;;;5107928;28;20216;-70
2022/11/08 04:48:07;;;;;;;5.53;2.17;;;11.50;99.90;;;;;;5108538;28;20225;-69
2022/11/08 04:50:34;;;;;;;5.60;2.37;;;11.50;99.90;;;;;;5108121;28;20226;-72
2022/11/08 04:53:02;;;;;;;3.30;2.10;;;11.40;99.90;;;;;;5107906;28;20214;-72
2022/11/08 04:55:28;;;;;;;4.97;2.00;;;11.40;99.90;;;;;;5107883;28;20198;-72
2022/11/08 04:57:58;;;;;;;5.97;2.40;;;11.50;99.90;;;;;;5146474;27;20213;-72
2022/11/08 05:00:25;;;;;;;3.30;1.70;;;11.40;99.90;;;;;;5117125;27;20947;-72
2022/11/08 05:02:52;;;;;;;2.27;1.93;;;11.40;99.90;;;;;;5107656;27;20254;-72
2022/11/08 05:05:19;;;;;;;6.53;2.03;;;11.40;99.90;;;;;;5119222;27;20210;-72
2022/11/08 05:07:46;;;;;;;5.63;2.10;;;11.40;99.90;;;;;;5128672;27;20206;-72
2022/11/08 05:10:14;;;;;;;2.33;1.67;;;11.40;99.90;;;;;;5128294;27;20201;-72
2022/11/08 05:12:41;;;;;;;3.23;1.80;;;11.30;99.90;;;;;;5128530;27;20250;-72
2022/11/08 05:15:08;;;;;;;4.00;2.40;;;11.30;99.90;;;;;;5109075;27;20210;-73
2022/11/08 05:17:35;;;;;;;2.87;2.00;;;11.30;99.90;;;;;;5119835;28;20214;-71
2022/11/08 05:25:32;;;;;;;6.53;2.20;;;11.30;99.90;;;;;;5115502;28;20216;-71
2022/11/08 05:27:59;;;;;;;5.73;2.40;;;11.30;99.90;;;;;;5147135;27;20231;-71
2022/11/08 05:30:26;;;;;;;3.43;2.20;;;11.30;99.90;;;;;;5148967;27;20557;-70
2022/11/08 05:32:52;;;;;;;3.63;2.00;;;11.20;99.90;;;;;;5137178;27;20237;-70
2022/11/08 05:35:21;;;;;;;2.87;2.10;;;11.20;99.90;;;;;;5120500;27;20951;-70
2022/11/08 05:37:48;;;;;;;5.57;2.37;;;11.20;99.90;;;;;;5111860;28;20206;-70
2022/11/08 05:40:15;;;;;;;6.03;2.23;;;11.20;99.90;;;;;;5111773;28;20503;-71
2022/11/08 05:42:43;;;;;;;2.70;2.10;;;11.20;99.90;;;;;;5111585;28;20451;-71
2022/11/08 05:45:10;;;;;;;4.77;1.90;;;11.20;99.90;;;;;;5113356;27;20576;-72
2022/11/08 05:47:37;;;;;;;4.73;2.10;;;11.20;99.90;;;;;;5132189;27;20201;-72
2022/11/08 05:50:05;;;;;;;3.97;1.97;;;11.20;99.90;;;;;;5132238;27;20211;-71
2022/11/08 05:52:31;;;;;;;3.83;2.20;;;11.10;99.90;;;;;;5132237;27;20229;-72
2022/11/08 05:54:58;;;;;;;2.40;1.90;;;11.10;99.90;;;;;;5132061;27;20206;-71
2022/11/08 05:57:25;;;;;;;3.93;2.23;;;11.10;99.90;;;;;;5121450;27;20649;-71
2022/11/08 05:59:53;;;;;;;3.23;2.27;;;11.10;99.90;;;;;;5111261;28;20233;-71
2022/11/08 06:02:20;;;;;;;3.63;2.20;;;11.10;99.90;;;;;;5111716;28;20202;-71
2022/11/08 06:04:47;;;;;;;3.37;2.30;;;11.10;99.90;;;;;;5111626;28;20575;-72
2022/11/08 06:07:13;;;;;;;3.70;2.30;;;11.00;99.90;;;;;;5111296;28;20212;-72
2022/11/08 06:09:40;;;;;;;6.77;2.50;;;11.00;99.90;;;;;;5115029;27;20202;-73
2022/11/08 06:12:08;;;;;;;5.37;2.33;;;11.00;99.90;;;;;;5131813;27;20237;-72
2022/11/08 06:14:34;;;;;;;3.30;2.40;;;11.00;99.90;;;;;;5129408;27;20216;-72
2022/11/08 06:17:04;;;;;;;4.87;2.37;;;11.00;99.90;;;;;;5131538;27;20198;-72
2022/11/08 06:19:31;;;;;;;4.87;2.70;;;11.00;99.90;;;;;;5131523;27;20205;-73
2022/11/08 06:21:57;;;;;;;6.80;2.80;;;11.00;99.90;;;;;;5131626;27;20213;-73
2022/11/08 06:24:24;;;;;;;4.43;2.13;;;11.00;99.90;;;;;;5131417;27;20205;-73
2022/11/08 06:26:51;;;;;;;2.83;2.50;;;10.90;99.90;;;;;;5141022;27;20212;-72
2022/11/08 06:29:18;;;;;;;5.70;2.30;;;10.90;99.90;;;;;;5129679;27;20728;-72
2022/11/08 06:31:44;;;;;;;5.67;2.30;;;10.90;99.90;;;;;;5110246;28;20233;-72
2022/11/08 06:34:12;;;;;;;6.00;2.73;;;10.90;99.90;;;;;;5111043;28;20209;-72
2022/11/08 06:36:39;;;;;;;2.57;2.37;;;10.80;99.90;;;;;;5110788;28;20213;-72
2022/11/08 06:39:06;;;;;;;4.60;2.37;;;10.80;99.90;;;;;;5110278;28;20226;-72
2022/11/08 06:41:34;;;;;;;6.60;2.60;;;10.80;99.90;;;;;;5114709;27;20291;-71
2022/11/08 06:44:01;;;;;;;8.30;2.93;;;10.80;99.90;;;;;;5130606;27;20687;-72
2022/11/08 06:46:28;;;;;;;2.47;2.20;;;10.70;99.90;;;;;;5129999;27;20917;-72
2022/11/08 06:48:54;;;;;;;3.43;2.23;;;10.70;99.90;;;;;;5130845;27;20579;-72
2022/11/08 06:51:23;;;;;;;4.07;2.50;;;10.70;99.90;;;;;;5130115;27;20225;-72
2022/11/08 06:53:49;;;;;;;4.57;2.37;;;10.70;99.90;;;;;;5130718;27;20683;-72
2022/11/08 06:56:16;;;;;;;5.23;2.40;;;10.70;99.90;;;;;;5135794;27;20686;-71
2022/11/08 06:58:43;;;;;;;6.80;2.50;;;10.70;99.90;;;;;;5151492;27;20642;-72
2022/11/08 07:01:12;;;;;;;2.80;2.10;;;10.70;99.90;;;;;;5151033;27;20240;-71
2022/11/08 07:03:39;;;;;;;2.83;2.07;;;10.70;99.90;;;;;;5151474;27;20204;-71
2022/11/08 07:06:06;;;;;;;3.10;2.40;;;10.70;99.90;;;;;;5133360;27;20664;-72
2022/11/08 07:08:35;;;;;;;4.97;2.43;;;10.70;99.90;;;;;;5109895;28;20202;-71
2022/11/08 07:11:02;;;;;;;6.00;2.47;;;10.70;99.90;;;;;;5126105;27;20210;-71
2022/11/08 07:13:29;;;;;;;3.73;2.50;;;10.70;99.90;;;;;;5135726;27;20206;-71
2022/11/08 07:15:58;;;;;;;6.50;2.60;;;10.70;99.90;;;;;;5139300;27;20206;-72
2022/11/08 07:18:26;;;;;;;5.20;2.13;;;10.70;99.90;;;;;;5130613;27;20205;-72
2022/11/08 07:20:53;;;;;;;4.80;2.67;;;10.70;99.90;;;;;;5130386;27;20206;-70
2022/11/08 07:23:19;;;;;;;3.77;2.50;;;10.70;99.90;;;;;;5130161;27;20210;-70
2022/11/08 07:25:47;;;;;;;4.87;2.33;;;10.70;99.90;;;;;;5130939;27;20198;-70
2022/11/08 07:28:16;;;;;;;4.53;3.10;;;10.80;99.90;;;;;;5151294;27;20219;-70
2022/11/08 07:30:43;;;;;;;3.97;2.43;;;10.80;99.90;;;;;;5146180;27;20205;-73
2022/11/08 07:33:10;;;;;;;4.70;2.63;;;10.90;99.90;;;;;;5109432;28;20230;-73
2022/11/08 07:35:37;;;;;;;4.00;2.53;;;10.90;99.90;;;;;;5109814;28;20601;-73
2022/11/08 07:38:04;;;;;;;3.17;2.20;;;11.00;99.90;;;;;;5109902;28;20210;-73
2022/11/08 07:40:31;;;;;;;6.13;2.47;;;11.00;99.90;;;;;;5109588;28;20212;-73
2022/11/08 07:43:01;;;;;;;2.87;2.50;;;11.10;99.90;;;;;;5111284;27;20201;-70
2022/11/08 07:45:28;;;;;;;8.43;2.57;;;11.10;99.90;;;;;;5114534;27;20189;-71
2022/11/08 07:47:58;;;;;;;4.10;2.50;;;11.10;99.90;;;;;;5129616;27;20204;-71
2022/11/08 07:50:26;;;;;;;5.57;2.60;;;11.20;99.90;;;;;;5129873;27;20668;-71
2022/11/08 07:52:52;;;;;;;4.30;2.30;;;11.30;99.90;;;;;;5129293;27;20237;-71
2022/11/08 07:55:19;;;;;;;4.70;2.17;;;11.30;99.90;;;;;;5117663;27;20205;-72
2022/11/08 07:57:47;;;;;;;4.17;2.50;;;11.30;99.90;;;;;;5114148;27;20211;-72
2022/11/08 08:00:16;;;;;;;3.40;2.53;;;11.30;99.90;;;;;;5108849;28;20707;-72
2022/11/08 08:02:43;;;;;;;3.93;2.67;;;11.40;99.90;;;;;;5118389;27;20220;-72
2022/11/08 08:05:10;;;;;;;4.33;2.37;;;11.40;99.90;;;;;;5129162;27;20209;-72
2022/11/08 08:07:37;;;;;;;2.70;2.43;;;11.50;99.90;;;;;;5129037;27;20572;-71
2022/11/08 08:10:04;;;;;;;2.87;2.13;;;11.50;99.90;;;;;;5121572;27;20952;-73
2022/11/08 08:12:31;;;;;;;3.50;2.73;;;11.60;99.90;;;;;;5121641;27;20224;-72
2022/11/08 08:14:58;;;;;;;3.03;2.17;;;11.70;99.90;;;;;;5128919;27;20202;-72
2022/11/08 08:17:26;;;;;;;2.33;2.13;;;11.70;99.90;;;;;;5128993;27;20584;-73
2022/11/08 08:19:53;;;;;;;2.63;1.90;;;11.80;99.90;;;;;;5128714;27;20798;-72
2022/11/08 08:22:21;;;;;;;4.17;2.33;;;11.80;99.90;;;;;;5128774;27;20209;-72
2022/11/08 08:24:48;;;;;;;2.70;2.10;;;11.90;99.90;;;;;;5128018;27;20761;-72
2022/11/08 08:27:15;;;;;;;3.13;2.10;;;11.90;99.90;;;;;;5141769;27;20214;-72
2022/11/08 08:29:42;;;;;;;4.53;2.10;;;12.00;99.90;;;;;;5149451;27;20705;-72
2022/11/08 08:32:08;;;;;;;5.33;2.60;;;12.00;99.90;;;;;;5143059;27;20232;-73
2022/11/08 08:34:36;;;;;;;5.40;2.33;;;12.00;99.90;;;;;;5128835;27;20210;-73
2022/11/08 08:37:03;;;;;;;3.90;2.10;;;12.10;99.90;;;;;;5128953;27;20216;-72
2022/11/08 08:39:30;;;;;;;4.40;2.00;;;12.10;99.90;;;;;;5128405;27;20201;-71
2022/11/08 08:41:57;;;;;;;3.37;2.20;;;12.20;99.90;;;;;;5128170;27;20225;-71
2022/11/08 08:44:23;;;;;;;6.57;2.30;;;12.20;99.90;;;;;;5128304;27;20205;-71
2022/11/08 08:46:50;;;;;;;4.73;2.13;;;12.30;99.90;;;;;;5128576;27;20205;-71
2022/11/08 08:49:17;;;;;;;3.80;2.07;;;12.40;99.90;;;;;;5128236;27;20197;-71
2022/11/08 08:51:45;;;;;;;3.07;1.87;;;12.40;99.90;;;;;;5128374;27;20225;-71
2022/11/08 08:54:13;;;;;;;2.73;2.10;;;12.40;99.90;;;;;;5127822;27;20201;-71
2022/11/08 08:56:40;;;;;;;5.40;2.30;;;12.50;99.90;;;;;;5119685;27;20740;-72
2022/11/08 08:59:07;;;;;;;2.83;2.20;;;12.50;99.90;;;;;;5118400;27;20216;-72
2022/11/08 09:01:34;;;;;;;6.07;2.40;;;12.60;99.90;;;;;;5128009;27;20196;-72
2022/11/08 09:04:00;;;;;;;2.73;1.83;;;12.70;99.90;;;;;;5127905;27;20228;-72
2022/11/08 09:06:27;;;;;;;5.07;1.97;;;12.70;99.90;;;;;;5128149;27;20201;-71
2022/11/08 09:08:55;;;;;;;2.13;1.90;;;12.80;99.90;;;;;;5127492;27;20205;-71
2022/11/08 09:11:22;;;;;;;3.67;1.90;;;12.80;99.90;;;;;;5126985;27;20300;-70
2022/11/08 09:13:49;;;;;;;2.37;2.00;;;12.90;99.90;;;;;;5128493;27;20205;-70
2022/11/08 09:16:15;;;;;;;3.33;2.37;;;12.90;99.90;;;;;;5121559;27;20205;-70
2022/11/08 09:18:42;;;;;;;2.57;1.80;;;13.00;99.90;;;;;;5126173;27;20208;-70
2022/11/08 09:21:09;;;;;;;4.57;2.07;;;13.00;99.90;;;;;;5125621;27;20298;-70
2022/11/08 09:23:36;;;;;;;4.27;2.17;;;13.10;99.90;;;;;;5126277;27;20213;-70
2022/11/08 09:26:05;;;;;;;3.30;2.00;;;13.10;99.90;;;;;;5129438;27;20220;-69
2022/11/08 09:28:33;;;;;;;2.27;2.07;;;13.20;99.90;;;;;;5147298;27;20236;-69
2022/11/08 09:31:01;;;;;;;3.27;1.90;;;13.20;99.90;;;;;;5146888;27;20212;-69
2022/11/08 09:33:28;;;;;;;2.90;1.60;;;13.30;99.90;;;;;;5121641;27;20248;-70
2022/11/08 09:35:55;;;;;;;3.40;2.00;;;13.30;99.90;;;;;;5105224;28;20209;-70
2022/11/08 09:38:22;;;;;;;2.93;1.50;;;13.40;99.90;;;;;;5107333;28;20206;-70
2022/11/08 09:40:56;;;;;;;4.93;2.27;;;13.40;99.90;;;;;;5125651;27;20233;-71
2022/11/08 09:43:42;;;;;;;4.63;2.33;;;13.50;99.90;;;;;;5125848;27;20200;-71
2022/11/08 09:46:11;;;;;;;3.20;1.90;;;13.50;99.90;;;;;;5125552;27;20193;-71
2022/11/08 09:48:41;;;;;;;3.50;2.20;;;13.50;99.90;;;;;;5125951;27;20197;-70
2022/11/08 09:51:14;;;;;;;3.10;1.70;;;13.60;99.90;;;;;;5115939;27;20672;-70
2022/11/08 09:53:48;;;;;;;3.83;2.00;;;13.70;99.90;;;;;;5105591;28;20254;-70
2022/11/08 09:56:23;;;;;;;3.27;1.70;;;13.80;99.90;;;;;;5128601;27;20738;-70
2022/11/08 09:58:53;;;;;;;2.77;1.80;;;13.80;99.90;;;;;;5138407;27;20205;-71
2022/11/08 10:01:21;;;;;;;4.43;1.87;;;14.00;99.90;;;;;;5125423;27;20250;-71
2022/11/08 10:03:52;;;;;;;7.23;2.10;;;14.00;99.90;;;;;;5125318;27;20660;-71
2022/11/08 10:06:42;;;;;;;5.30;2.07;;;14.10;99.90;;;;;;5124236;27;20217;-70
2022/11/08 10:09:24;;;;;;;3.27;1.83;;;14.10;99.90;;;;;;5125814;27;20198;-70
2022/11/08 10:12:05;;;;;;;6.77;2.07;;;14.10;99.90;;;;;;5126107;27;20656;-70
2022/11/08 10:14:42;;;;;;;5.00;1.80;;;14.10;99.90;;;;;;5122999;27;20584;-70
2022/11/08 10:17:25;;;;;;;4.50;1.80;;;14.10;99.90;;;;;;5109334;27;20638;-70
2022/11/08 10:20:05;;;;;;;2.67;1.77;;;14.20;99.90;;;;;;5105129;28;20198;-71
2022/11/08 10:22:42;;;;;;;2.97;2.10;;;14.30;99.90;;;;;;5108536;28;20213;-70
2022/11/08 10:25:19;;;;;;;2.90;1.70;;;14.40;99.90;;;;;;5108367;28;20202;-70
2022/11/08 10:27:48;;;;;;;1.90;1.43;;;14.50;99.90;;;;;;5128550;27;20201;-70
2022/11/08 10:30:20;;;;;;;2.27;1.53;;;14.60;99.90;;;;;;5108618;28;20216;-71
2022/11/08 10:32:51;;;;;;;3.53;1.73;;;14.60;99.90;;;;;;5107931;27;20214;-70
2022/11/08 10:35:25;;;;;;;3.53;1.90;;;14.70;99.90;;;;;;5128627;27;20204;-70
2022/11/08 10:37:54;;;;;;;2.60;1.50;;;14.80;99.90;;;;;;5128701;27;20566;-71
2022/11/08 10:40:33;;;;;;;2.63;1.57;;;14.80;99.90;;;;;;5128367;27;20924;-68
2022/11/08 10:43:09;;;;;;;2.70;1.73;;;14.80;99.90;;;;;;5128995;27;20209;-71
2022/11/08 10:45:38;;;;;;;3.07;1.67;;;14.80;99.90;;;;;;5128996;27;20204;-71
2022/11/08 10:48:05;;;;;;;2.20;1.57;;;14.80;99.90;;;;;;5128634;27;20201;-71
2022/11/08 10:50:40;;;;;;;3.00;1.77;;;14.90;99.90;;;;;;5127370;27;20240;-70
2022/11/08 10:53:16;;;;;;;3.80;1.50;;;14.90;99.90;;;;;;5108075;27;20706;-70
2022/11/08 10:55:48;;;;;;;3.60;1.40;;;14.90;99.90;;;;;;5121174;27;20229;-71
2022/11/08 10:58:40;;;;;;;2.23;1.53;;;14.90;99.90;;;;;;5125565;27;20238;-70
2022/11/08 11:01:15;;;;;;;2.77;1.80;;;14.90;99.90;;;;;;5106725;27;20236;-70
2022/11/08 11:03:43;;;;;;;3.50;2.57;;;15.00;99.90;;;;;;5121786;27;20308;-70
2022/11/08 11:06:22;;;;;;;5.40;3.77;;;15.10;99.90;;;;;;5117975;27;20206;-70
2022/11/08 11:08:51;;;;;;;3.00;1.70;;;15.20;99.90;;;;;;5128061;27;20194;-71
2022/11/08 11:11:25;;;;;;;4.53;1.70;;;15.30;99.90;;;;;;5117975;27;20213;-71
2022/11/08 11:14:06;;;;;;;1.57;1.47;;;15.40;99.90;;;;;;5107490;28;20229;-69
2022/11/08 11:16:35;;;;;;;3.40;1.63;;;15.50;99.90;;;;;;5119053;27;20197;-69
2022/11/08 11:19:04;;;;;;;2.30;1.40;;;15.70;99.90;;;;;;5124426;27;20219;-69
2022/11/08 11:21:36;;;;;;;2.93;2.00;;;15.70;99.90;;;;;;5121908;27;20459;-69
2022/11/08 11:24:09;;;;;;;4.03;1.77;;;15.80;99.90;;;;;;5109550;27;20198;-68
2022/11/08 11:26:41;;;;;;;2.00;1.37;;;15.90;99.90;;;;;;5131986;27;20204;-68
2022/11/08 11:29:21;;;;;;;3.27;1.33;;;16.00;99.90;;;;;;5149422;27;20193;-68
2022/11/08 11:31:52;;;;;;;2.43;1.77;;;16.10;99.90;;;;;;5146407;27;20209;-69
2022/11/08 11:34:39;;;;;;;4.23;1.60;;;16.10;99.90;;;;;;5122872;27;20218;-70
2022/11/08 11:37:16;;;;;;;3.60;1.43;;;16.30;99.90;;;;;;5107717;27;20213;-69
2022/11/08 11:39:50;;;;;;;2.30;1.53;;;16.30;99.90;;;;;;5107476;27;20217;-69
2022/11/08 11:42:23;;;;;;;4.90;1.70;;;16.40;99.90;;;;;;5121731;27;20224;-70
2022/11/08 11:45:00;;;;;;;2.10;1.47;;;16.50;99.90;;;;;;5107489;28;20672;-69
2022/11/08 11:47:31;;;;;;;2.33;1.40;;;16.60;99.90;;;;;;5107538;27;20217;-69
2022/11/08 11:50:04;;;;;;;1.77;1.60;;;16.60;99.90;;;;;;5107719;27;20198;-70
2022/11/08 11:52:31;;;;;;;2.50;1.20;;;16.60;99.90;;;;;;5123635;27;20706;-70
2022/11/08 11:54:58;;;;;;;2.13;1.37;;;16.70;99.90;;;;;;5127480;27;20287;-69
2022/11/08 11:57:34;;;;;;;2.77;1.10;;;16.90;99.90;;;;;;5115082;27;20210;-70
2022/11/08 12:00:05;;;;;;;2.60;1.50;;;16.90;99.90;;;;;;5117069;27;20230;-69
2022/11/08 12:03:16;;;;;;;3.73;1.30;;;17.00;99.90;;;;;;5107234;28;20191;-70
2022/11/08 12:06:03;;;;;;;1.67;1.20;;;17.10;99.90;;;;;;5118867;27;20204;-70
2022/11/08 12:08:41;;;;;;;2.43;1.30;;;17.20;99.90;;;;;;5111720;27;20642;-69
2022/11/08 12:11:28;;;;;;;1.53;1.10;;;17.20;99.90;;;;;;5126994;27;20190;-69
2022/11/08 12:14:13;;;;;;;2.83;1.40;;;17.10;99.90;;;;;;5126866;27;20221;-71
2022/11/08 12:16:47;;;;;;;1.60;1.40;;;17.10;99.90;;;;;;5107254;27;20589;-71
2022/11/08 12:19:30;;;;;;;2.03;1.37;;;17.10;99.90;;;;;;5106976;28;20190;-71
2022/11/08 12:22:02;;;;;;;3.90;1.37;;;17.20;99.90;;;;;;5106470;28;20194;-69
2022/11/08 12:24:41;;;;;;;2.97;1.20;;;17.20;99.90;;;;;;5106224;28;20229;-69
2022/11/08 12:27:17;;;;;;;1.93;1.20;;;17.20;99.90;;;;;;5133611;27;20208;-69
2022/11/08 12:29:52;;;;;;;2.57;1.60;;;17.10;99.90;;;;;;5149516;27;20193;-69
2022/11/08 12:32:34;;;;;;;1.30;1.20;;;17.10;99.90;;;;;;5135911;27;20205;-69
2022/11/08 12:35:15;;;;;;;1.30;1.20;;;17.20;99.90;;;;;;5115817;27;20209;-69
2022/11/08 12:38:09;;;;;;;3.00;1.17;;;17.20;99.90;;;;;;5126803;27;20197;-70
2022/11/08 12:40:45;;;;;;;2.47;1.37;;;17.40;99.90;;;;;;5124412;27;20225;-70
2022/11/08 12:43:35;;;;;;;3.10;1.23;;;17.40;99.90;;;;;;5106547;27;20198;-70
2022/11/08 12:46:08;;;;;;;3.70;1.70;;;17.60;99.90;;;;;;5135386;27;20186;-70
2022/11/08 12:49:20;;;;;;;5.33;1.40;;;17.60;99.90;;;;;;5139151;27;20967;-70
2022/11/08 12:52:01;;;;;;;2.23;1.50;;;17.60;99.90;;;;;;5114520;27;20574;-70
2022/11/08 12:54:33;;;;;;;3.00;1.20;;;17.70;99.90;;;;;;5123794;27;20232;-70
2022/11/08 12:57:04;;;;;;;2.17;1.10;;;17.70;99.90;;;;;;5105349;28;20692;-70
2022/11/08 12:59:35;;;;;;;1.73;1.30;;;17.60;99.90;;;;;;5118655;27;21055;-69
2022/11/08 13:02:03;;;;;;;3.03;1.40;;;17.60;99.90;;;;;;5125720;27;20274;-69
2022/11/08 13:04:45;;;;;;;2.67;1.33;;;17.40;99.90;;;;;;5126202;27;20316;-70
2022/11/08 13:07:31;;;;;;;3.53;1.50;;;17.30;99.90;;;;;;5126132;27;20230;-70
2022/11/08 13:10:04;;;;;;;3.00;1.40;;;17.20;99.90;;;;;;5126090;27;20197;-70
2022/11/08 13:12:40;;;;;;;3.57;1.00;;;17.10;99.90;;;;;;5107900;27;20206;-70
2022/11/08 13:15:16;;;;;;;2.20;1.23;;;17.10;99.90;;;;;;5105581;28;20222;-70
2022/11/08 13:18:22;;;;;;;1.90;1.10;;;17.00;99.90;;;;;;5106209;28;20197;-70
2022/11/08 13:20:49;;;;;;;2.30;1.30;;;16.90;99.90;;;;;;5105269;28;20193;-70
2022/11/08 13:23:24;;;;;;;2.30;1.23;;;16.90;99.90;;;;;;5105440;28;20210;-69
2022/11/08 13:25:52;;;;;;;3.10;1.23;;;16.90;99.90;;;;;;5105609;28;20204;-70